Breezy Point, New York
Current Conditions -  °F | °C
As of 8:51 AM on Saturday 25 Oct 2014 (Local Time) from KJFK Reporting Station
Few Clouds Few Clouds  
Wind Chill: 55°   Ceiling: Unl
Heat Index: 55°   Visibility: 10mi
Dew Point: 38°   Wind: 10mph
Humidity: 53%   Direction: 270°W
Pressure: 29.87"   Gusts: NA
Location:  40.56°N, 73.93°W
Report Text: KJFK 251251Z 27009KT 10SM FEW270 13/03 A2987 RMK AO2 SLP115 T01280033
Loading
Personal Weather Stations






























Interactive Weather Map
Tropical Storm Tracking
New forecast layout! Learn more

10-Day Weather Forecast

Advertisements
Track Severe Weather on mobile